Pacific - South Coast: Past 24 Hour Conditions

 

East Dellwood - 46207

06:00 PM PDT 24 July 2014Buoy position: 50.88N 129.93W
This table is a summary of hourly weather conditions for the past 24 hours.
Date / Time
(PDT)
Wind(knots) Wave height(m) Wave period(s) Pressure(kPa) Air tempC) Water tempC)
24 July 2014
18:00 WSW 12 gust 14 1.0 6.0 102.0 15 15
17:00 WSW 12 gust 16 1.1 7.0 102.0 15 15
16:00 SSW 10 gust 12 1.1 6.0 102.0 15 15
15:00 SW 10 gust 12 1.1 7.0 102.0 15 15
14:00 SW 12 gust 16 1.1 6.0 102.0 15 15
13:00 SSW 8 gust 10 1.1 6.0 102.0 15 15
12:00 WSW 10 gust 12 1.2 6.0 102.0 14 15
11:00 SW 10 gust 14 1.2 6.0 101.9 15 15
10:00 W 12 gust 14 1.3 6.0 101.9 14 15
9:00 WSW 12 gust 14 1.4 6.0 101.9 15 15
8:00 W 12 gust 16 1.4 7.0 101.9 15 15
7:00 WNW 8 gust 12 1.6 6.0 101.9 15 15
6:00 WNW 12 gust 16 1.6 7.0 101.9 15 15
5:00 WNW 16 gust 19 1.7 6.0 101.8 15 15
4:00 WNW 16 gust 19 1.7 6.0 101.8 15 15
3:00 WNW 16 gust 19 1.8 6.0 101.8 15 15
2:00 WNW 18 gust 23 1.9 6.0 101.8 15 15
1:00 WNW 18 gust 21 1.8 6.0 101.8 15 15
0:00 WNW 19 N/A N/A 101.8 15 15
23 July 2014
23:00 WNW 18 gust 23 1.8 6.0 101.8 15 15
22:00 WNW 18 gust 21 1.7 6.0 101.8 15 15
21:00 WNW 19 gust 23 1.7 6.0 101.7 15 15
20:00 NW 19 gust 23 1.8 6.0 101.7 15 15
19:00 NW 18 gust 21 1.6 8.0 101.7 15 15
18:00 NW 19 gust 23 1.6 6.0 101.7 15 15
 
Map of Pacific - South Coast marine weather areas Tsawwassen Ferry Terminal South Nomad - 46036 Sentry Shoal - 46131 South Brooks - 46132 Halibut Bank - 46146 South Moresby - 46147 South Hecate Strait - 46185 West Sea Otter - 46204 La Perouse Bank - 46206 East Dellwood - 46207 Discovery Island Esquimalt Harbour Kelp Reefs Malahat Race Rocks Lightstation Saturna Island Sheringham Point University of Victoria Victoria Gonzales Victoria Int'l Airport Ballenas Islands Campbell River Airport Comox Airport Entrance Island Fanny Island Nanaimo Airport Port Hardy Airport Sisters Islets Estevan Point Sartine Island Solander Island Tofino Airport Grief Point Powell River Airport Sechelt Cape St.James Bella Bella Airport Bella Coola Airport Cathedral Point Herbert Island Point Atkinson Sand Heads Lightstation Vancouver Harbour Vancouver Int'l Airport West Vancouver Port Alberni Howe Sound - Pam Rocks Squamish Airport